createdAt,value
2023-01-09T00:00:29.583Z,8.40
2023-01-09T00:01:29.523Z,8.33
2023-01-09T00:02:29.545Z,8.26
2023-01-09T00:03:29.699Z,8.33
2023-01-09T00:04:29.546Z,8.43
2023-01-09T00:05:29.556Z,8.36
2023-01-09T00:06:29.582Z,8.25
2023-01-09T00:08:29.554Z,8.18
2023-01-09T00:09:29.506Z,8.15
2023-01-09T00:10:29.522Z,8.12
2023-01-09T00:11:29.534Z,8.13
2023-01-09T00:12:29.544Z,8.25
2023-01-09T00:13:29.566Z,8.39
2023-01-09T00:14:29.498Z,8.32
2023-01-09T00:15:29.574Z,8.12
2023-01-09T00:16:29.617Z,8.06
2023-01-09T00:17:29.555Z,8.19
2023-01-09T00:18:29.566Z,8.37
2023-01-09T00:19:29.598Z,8.56
2023-01-09T00:20:29.580Z,8.74
2023-01-09T00:21:29.563Z,8.89
2023-01-09T00:22:29.574Z,8.91
2023-01-09T00:25:29.610Z,8.89
2023-01-09T00:26:29.606Z,8.94
2023-01-09T00:27:29.616Z,8.93
2023-01-09T00:29:29.619Z,8.94
2023-01-09T00:30:29.619Z,8.99
2023-01-09T00:31:29.575Z,9.03
2023-01-09T00:32:29.608Z,9.09
2023-01-09T00:33:29.584Z,9.16
2023-01-09T00:34:29.597Z,9.20
2023-01-09T00:35:29.627Z,9.23
2023-01-09T00:36:29.605Z,9.03
2023-01-09T00:37:29.602Z,8.96
2023-01-09T00:38:29.606Z,8.85
2023-01-09T00:40:29.616Z,8.86
2023-01-09T00:41:29.626Z,8.69
2023-01-09T00:42:29.601Z,8.56
2023-01-09T00:43:29.649Z,8.54
2023-01-09T00:44:29.598Z,8.58
2023-01-09T00:45:29.693Z,8.55
2023-01-09T00:46:29.671Z,8.56
2023-01-09T00:47:29.631Z,8.65
2023-01-09T00:48:29.695Z,8.70
2023-01-09T00:49:29.604Z,8.78
2023-01-09T00:50:29.633Z,8.85
2023-01-09T00:53:29.677Z,8.83
2023-01-09T00:54:29.642Z,8.78
2023-01-09T00:55:29.668Z,8.74
2023-01-09T00:56:29.700Z,8.78
2023-01-09T00:57:29.645Z,8.83
2023-01-09T00:58:29.644Z,8.80
2023-01-09T00:59:29.640Z,8.87
2023-01-09T01:00:29.625Z,8.94
2023-01-09T01:01:29.759Z,9.02
2023-01-09T01:02:29.792Z,9.04
2023-01-09T01:04:29.742Z,9.09
2023-01-09T01:05:29.693Z,9.08
2023-01-09T01:06:29.648Z,9.05
2023-01-09T01:07:29.659Z,8.87
2023-01-09T01:08:29.642Z,8.64
2023-01-09T01:09:29.706Z,8.57
2023-01-09T01:10:29.657Z,8.56
2023-01-09T01:11:29.695Z,8.58
2023-01-09T01:12:29.703Z,8.66
2023-01-09T01:13:29.660Z,8.76
2023-01-09T01:14:29.673Z,8.84
2023-01-09T01:15:29.671Z,8.85
2023-01-09T01:16:29.766Z,8.92
2023-01-09T01:17:29.739Z,9.00
2023-01-09T01:18:29.705Z,9.06
2023-01-09T01:19:29.665Z,9.03
2023-01-09T01:20:29.684Z,9.02
2023-01-09T01:21:29.691Z,8.88
2023-01-09T01:22:29.698Z,8.80
2023-01-09T01:23:29.711Z,8.69
2023-01-09T01:24:29.683Z,8.63
2023-01-09T01:25:29.722Z,8.57
2023-01-09T01:26:29.693Z,8.55
2023-01-09T01:27:29.729Z,8.50
2023-01-09T01:28:29.723Z,8.51
2023-01-09T01:29:29.735Z,8.49
2023-01-09T01:30:29.767Z,8.54
2023-01-09T01:31:29.703Z,8.56
2023-01-09T01:32:29.741Z,8.54
2023-01-09T01:33:29.714Z,8.56
2023-01-09T01:34:29.743Z,8.60
2023-01-09T01:35:29.752Z,8.70
2023-01-09T01:36:29.747Z,8.76
2023-01-09T01:37:29.811Z,8.79
2023-01-09T01:38:29.750Z,8.65
2023-01-09T01:39:29.716Z,8.61
2023-01-09T01:40:29.729Z,8.64
2023-01-09T01:41:29.945Z,8.67
2023-01-09T01:42:29.728Z,8.66
2023-01-09T01:43:29.748Z,8.71
2023-01-09T01:44:29.730Z,8.78
2023-01-09T01:45:29.782Z,8.84
2023-01-09T01:46:29.802Z,8.90
2023-01-09T01:47:29.747Z,8.93
2023-01-09T01:48:29.741Z,8.95
2023-01-09T01:49:29.786Z,8.98
2023-01-09T01:50:29.783Z,9.03
2023-01-09T01:51:29.831Z,9.10
2023-01-09T01:52:29.784Z,9.14
2023-01-09T01:53:29.784Z,9.18
2023-01-09T01:54:29.836Z,9.14
2023-01-09T01:55:29.804Z,9.17
2023-01-09T01:56:29.811Z,9.21
2023-01-09T01:57:29.765Z,9.26
2023-01-09T02:00:29.828Z,9.28
2023-01-09T02:01:29.894Z,9.30
2023-01-09T02:02:29.914Z,9.32
2023-01-09T02:04:29.774Z,9.27
2023-01-09T02:05:29.793Z,9.24
2023-01-09T02:06:29.829Z,9.19
2023-01-09T02:07:29.859Z,9.11
2023-01-09T02:08:29.829Z,9.14
2023-01-09T02:10:29.807Z,9.16
2023-01-09T02:11:29.843Z,9.19
2023-01-09T02:12:29.868Z,9.22
2023-01-09T02:13:29.843Z,9.27
2023-01-09T02:14:29.852Z,9.31
2023-01-09T02:15:29.896Z,9.33
2023-01-09T02:17:29.874Z,9.31
2023-01-09T02:18:29.862Z,9.29
2023-01-09T02:19:29.865Z,9.22
2023-01-09T02:20:29.896Z,9.19
2023-01-09T02:21:29.867Z,9.15
2023-01-09T02:22:29.808Z,9.14
2023-01-09T02:23:29.868Z,9.12
2023-01-09T02:24:29.897Z,9.11
2023-01-09T02:25:29.866Z,9.13
2023-01-09T02:26:29.862Z,9.06
2023-01-09T02:27:29.874Z,9.00
2023-01-09T02:28:29.914Z,8.94
2023-01-09T02:30:29.846Z,8.96
2023-01-09T02:31:29.862Z,9.00
2023-01-09T02:32:29.841Z,9.01
2023-01-09T02:33:29.918Z,8.96
2023-01-09T02:34:29.889Z,8.92
2023-01-09T02:35:29.884Z,8.68
2023-01-09T02:36:29.899Z,8.58
2023-01-09T02:37:29.893Z,8.55
2023-01-09T02:38:29.876Z,8.53
2023-01-09T02:39:29.928Z,8.58
2023-01-09T02:40:29.922Z,8.62
2023-01-09T02:41:29.946Z,8.66
2023-01-09T02:42:29.912Z,8.62
2023-01-09T02:43:29.875Z,8.56
2023-01-09T02:44:29.871Z,8.54
2023-01-09T02:45:29.955Z,8.43
2023-01-09T02:46:29.906Z,8.40
2023-01-09T02:47:29.916Z,8.38
2023-01-09T02:48:29.935Z,8.37
2023-01-09T02:49:29.905Z,8.36
2023-01-09T02:50:29.922Z,8.22
2023-01-09T02:51:29.934Z,7.91
2023-01-09T02:52:29.901Z,7.82
2023-01-09T02:53:29.937Z,7.75
2023-01-09T02:54:29.973Z,7.70
2023-01-09T02:55:29.948Z,7.67
2023-01-09T02:56:29.964Z,7.47
2023-01-09T02:57:29.961Z,7.39
2023-01-09T02:58:29.945Z,7.38
2023-01-09T02:59:29.953Z,7.37
2023-01-09T03:00:29.973Z,7.32
2023-01-09T03:01:30.180Z,7.18
2023-01-09T03:02:29.988Z,7.22
2023-01-09T03:03:29.958Z,7.25
2023-01-09T03:04:29.964Z,7.29
2023-01-09T03:05:29.968Z,7.30
2023-01-09T03:06:29.940Z,7.33
2023-01-09T03:07:29.978Z,7.18
2023-01-09T03:08:29.923Z,7.17
2023-01-09T03:09:29.979Z,7.12
2023-01-09T03:10:30.025Z,7.09
2023-01-09T03:11:29.980Z,7.06
2023-01-09T03:12:29.988Z,7.03
2023-01-09T03:13:30.001Z,7.02
2023-01-09T03:14:29.992Z,6.88
2023-01-09T03:15:30.047Z,6.90
2023-01-09T03:16:30.099Z,6.95
2023-01-09T03:17:29.992Z,7.02
2023-01-09T03:18:30.019Z,7.04
2023-01-09T03:19:29.959Z,7.06
2023-01-09T03:20:30.036Z,7.05
2023-01-09T03:21:30.022Z,7.04
2023-01-09T03:22:29.984Z,6.94
2023-01-09T03:23:30.041Z,6.93
2023-01-09T03:24:29.981Z,6.94
2023-01-09T03:25:29.981Z,7.02
2023-01-09T03:26:29.982Z,7.08
2023-01-09T03:27:30.045Z,7.18
2023-01-09T03:28:29.989Z,7.24
2023-01-09T03:29:30.029Z,7.29
2023-01-09T03:30:30.000Z,7.35
2023-01-09T03:31:30.064Z,7.41
2023-01-09T03:32:30.043Z,7.51
2023-01-09T03:33:29.986Z,7.61
2023-01-09T03:34:29.996Z,7.71
2023-01-09T03:35:30.035Z,7.79
2023-01-09T03:36:30.109Z,7.86
2023-01-09T03:37:30.079Z,7.92
2023-01-09T03:38:30.173Z,7.95
2023-01-09T03:39:30.079Z,7.93
2023-01-09T03:40:30.043Z,7.90
2023-01-09T03:41:30.071Z,7.88
2023-01-09T03:42:30.066Z,7.91
2023-01-09T03:43:30.024Z,7.95
2023-01-09T03:44:30.107Z,7.98
2023-01-09T03:45:30.100Z,8.03
2023-01-09T03:46:30.073Z,8.05
2023-01-09T03:48:30.085Z,8.07
2023-01-09T03:49:30.133Z,8.09
2023-01-09T03:50:30.041Z,8.07
2023-01-09T03:51:30.090Z,7.95
2023-01-09T03:52:30.128Z,7.94
2023-01-09T03:53:30.084Z,7.95
2023-01-09T03:54:30.105Z,7.99
2023-01-09T03:55:30.124Z,7.92
2023-01-09T03:56:30.098Z,7.93
2023-01-09T03:57:30.090Z,7.94
2023-01-09T03:58:30.107Z,7.90
2023-01-09T03:59:30.117Z,7.78
2023-01-09T04:00:30.084Z,7.75
2023-01-09T04:01:30.174Z,7.60
2023-01-09T04:02:30.074Z,7.44
2023-01-09T04:03:30.139Z,7.37
2023-01-09T04:04:30.104Z,7.36
2023-01-09T04:05:30.124Z,7.39
2023-01-09T04:06:30.087Z,7.38
2023-01-09T04:07:30.141Z,7.37
2023-01-09T04:08:30.084Z,7.41
2023-01-09T04:09:30.075Z,7.43
2023-01-09T04:10:30.170Z,7.48
2023-01-09T04:11:30.135Z,7.27
2023-01-09T04:12:30.109Z,7.20
2023-01-09T04:13:30.153Z,7.21
2023-01-09T04:14:30.154Z,7.22
2023-01-09T04:15:30.141Z,7.24
2023-01-09T04:16:30.181Z,7.23
2023-01-09T04:17:30.111Z,7.24
2023-01-09T04:18:30.190Z,7.28
2023-01-09T04:19:30.111Z,7.25
2023-01-09T04:20:30.119Z,7.19
2023-01-09T04:21:30.180Z,7.13
2023-01-09T04:22:30.163Z,7.00
2023-01-09T04:23:30.144Z,7.02
2023-01-09T04:25:30.139Z,7.01
2023-01-09T04:26:30.231Z,7.04
2023-01-09T04:27:30.191Z,7.09
2023-01-09T04:28:30.174Z,7.13
2023-01-09T04:29:30.169Z,7.15
2023-01-09T04:30:30.173Z,7.19
2023-01-09T04:31:30.241Z,7.12
2023-01-09T04:33:30.187Z,7.10
2023-01-09T04:34:30.217Z,7.04
2023-01-09T04:35:30.209Z,6.99
2023-01-09T04:36:30.162Z,6.95
2023-01-09T04:37:30.175Z,6.98
2023-01-09T04:38:30.189Z,7.00
2023-01-09T04:39:30.190Z,6.96
2023-01-09T04:40:30.173Z,6.90
2023-01-09T04:41:30.174Z,6.88
2023-01-09T04:42:30.240Z,6.81
2023-01-09T04:43:30.183Z,6.75
2023-01-09T04:44:30.208Z,6.64
2023-01-09T04:45:30.327Z,6.51
2023-01-09T04:46:30.189Z,6.44
2023-01-09T04:47:30.260Z,6.45
2023-01-09T04:48:30.239Z,6.50
2023-01-09T04:49:30.222Z,6.52
2023-01-09T04:50:31.441Z,6.44
2023-01-09T04:51:30.193Z,6.40
2023-01-09T04:52:30.242Z,6.32
2023-01-09T04:53:30.250Z,6.34
2023-01-09T04:54:30.229Z,6.42
2023-01-09T04:55:30.234Z,6.47
2023-01-09T04:56:30.294Z,6.54
2023-01-09T04:57:30.212Z,6.62
2023-01-09T04:58:30.191Z,6.67
2023-01-09T04:59:30.263Z,6.72
2023-01-09T05:00:30.291Z,6.67
2023-01-09T05:01:30.484Z,6.63
2023-01-09T05:02:30.268Z,6.66
2023-01-09T05:03:30.211Z,6.70
2023-01-09T05:04:30.286Z,6.67
2023-01-09T05:05:30.309Z,6.61
2023-01-09T05:06:30.261Z,6.65
2023-01-09T05:08:30.334Z,6.64
2023-01-09T05:09:30.245Z,6.54
2023-01-09T05:10:30.279Z,6.40
2023-01-09T05:11:30.342Z,6.27
2023-01-09T05:12:30.306Z,6.26
2023-01-09T05:13:30.308Z,6.23
2023-01-09T05:14:30.255Z,6.25
2023-01-09T05:15:30.323Z,6.36
2023-01-09T05:16:30.342Z,6.42
2023-01-09T05:17:30.291Z,6.46
2023-01-09T05:18:30.289Z,6.52
2023-01-09T05:19:30.257Z,6.56
2023-01-09T05:20:30.274Z,6.62
2023-01-09T05:21:30.306Z,6.65
2023-01-09T05:22:30.261Z,6.69
2023-01-09T05:23:30.311Z,6.73
2023-01-09T05:24:30.266Z,6.61
2023-01-09T05:25:30.336Z,6.55
2023-01-09T05:26:30.367Z,6.58
2023-01-09T05:27:30.326Z,6.60
2023-01-09T05:28:30.307Z,6.67
2023-01-09T05:29:30.333Z,6.66
2023-01-09T05:31:30.344Z,6.70
2023-01-09T05:32:30.346Z,6.67
2023-01-09T05:33:30.331Z,6.72
2023-01-09T05:34:30.311Z,6.73
2023-01-09T05:35:30.313Z,6.72
2023-01-09T05:36:30.301Z,6.77
2023-01-09T05:37:30.327Z,6.81
2023-01-09T05:38:30.348Z,6.83
2023-01-09T05:39:30.353Z,6.86
2023-01-09T05:40:39.552Z,6.84
2023-01-09T05:41:30.387Z,6.85
2023-01-09T05:42:30.386Z,6.88
2023-01-09T05:43:30.349Z,6.94
2023-01-09T05:44:30.320Z,6.93
2023-01-09T05:45:30.421Z,6.98
2023-01-09T05:47:30.404Z,6.91
2023-01-09T05:50:30.392Z,6.86
2023-01-09T05:51:30.385Z,6.57
2023-01-09T05:52:30.424Z,6.52
2023-01-09T05:53:30.321Z,6.55
2023-01-09T05:54:30.352Z,6.60
2023-01-09T05:55:30.429Z,6.50
2023-01-09T05:56:30.358Z,6.49
2023-01-09T05:57:30.339Z,6.50
2023-01-09T05:58:30.394Z,6.49
2023-01-09T05:59:30.358Z,6.48
2023-01-09T06:01:30.517Z,6.47
2023-01-09T06:02:30.571Z,6.48
2023-01-09T06:03:30.451Z,6.46
2023-01-09T06:04:30.413Z,6.42
2023-01-09T06:05:30.397Z,6.41
2023-01-09T06:06:30.423Z,6.46
2023-01-09T06:07:30.354Z,6.49
2023-01-09T06:08:30.416Z,6.50
2023-01-09T06:09:30.370Z,6.49
2023-01-09T06:10:30.406Z,6.50
2023-01-09T06:11:30.460Z,6.53
2023-01-09T06:12:30.430Z,6.54
2023-01-09T06:15:30.440Z,6.61
2023-01-09T06:16:30.477Z,6.57
2023-01-09T06:17:30.430Z,6.59
2023-01-09T06:18:30.393Z,6.58
2023-01-09T06:20:30.390Z,6.54
2023-01-09T06:21:30.396Z,6.48
2023-01-09T06:22:30.614Z,6.43
2023-01-09T06:23:30.446Z,6.35
2023-01-09T06:24:30.465Z,6.40
2023-01-09T06:25:30.466Z,6.37
2023-01-09T06:26:30.411Z,6.35
2023-01-09T06:27:30.455Z,6.34
2023-01-09T06:29:30.474Z,6.24
2023-01-09T06:30:30.414Z,6.26
2023-01-09T06:31:30.530Z,6.25
2023-01-09T06:32:30.506Z,6.28
2023-01-09T06:33:30.455Z,6.33
2023-01-09T06:34:30.493Z,6.40
2023-01-09T06:35:30.462Z,6.42
2023-01-09T06:36:30.446Z,6.46
2023-01-09T06:37:30.506Z,6.40
2023-01-09T06:38:30.453Z,6.39
2023-01-09T06:39:30.573Z,6.45
2023-01-09T06:40:30.478Z,6.35
2023-01-09T06:41:30.448Z,6.32
2023-01-09T06:42:30.485Z,6.25
2023-01-09T06:43:30.504Z,6.29
2023-01-09T06:44:30.477Z,6.33
2023-01-09T06:45:30.521Z,6.37
2023-01-09T06:46:30.564Z,6.34
2023-01-09T06:47:30.508Z,6.36
2023-01-09T06:48:30.454Z,6.30
2023-01-09T06:49:30.510Z,6.21
2023-01-09T06:51:30.528Z,6.22
2023-01-09T06:52:30.527Z,6.21
2023-01-09T06:53:30.561Z,6.30
2023-01-09T06:54:30.534Z,6.37
2023-01-09T06:55:30.573Z,6.43
2023-01-09T06:56:30.512Z,6.49
2023-01-09T06:57:30.722Z,6.54
2023-01-09T06:58:30.552Z,6.47
2023-01-09T06:59:30.539Z,6.49
2023-01-09T07:00:30.573Z,6.50
2023-01-09T07:03:32.445Z,6.54
2023-01-09T07:04:30.588Z,6.52
2023-01-09T07:05:30.555Z,6.57
2023-01-09T07:06:30.552Z,6.53
2023-01-09T07:07:30.550Z,6.54
2023-01-09T07:08:30.513Z,6.50
2023-01-09T07:09:30.567Z,6.44
2023-01-09T07:10:30.589Z,6.48
2023-01-09T07:11:30.608Z,6.53
2023-01-09T07:12:30.565Z,6.59
2023-01-09T07:13:30.538Z,6.62
2023-01-09T07:14:30.601Z,6.63
2023-01-09T07:15:30.547Z,6.59
2023-01-09T07:16:30.625Z,6.63
2023-01-09T07:17:30.582Z,6.66
2023-01-09T07:18:30.594Z,6.65
2023-01-09T07:19:30.616Z,6.61
2023-01-09T07:20:30.562Z,6.58
2023-01-09T07:21:32.713Z,6.54
2023-01-09T07:22:30.606Z,6.52
2023-01-09T07:23:30.569Z,6.54
2023-01-09T07:24:30.595Z,6.47
2023-01-09T07:26:30.606Z,6.46
2023-01-09T07:27:30.635Z,6.44
2023-01-09T07:28:30.630Z,6.49
2023-01-09T07:29:30.639Z,6.52
2023-01-09T07:30:30.608Z,6.53
2023-01-09T07:31:30.675Z,6.52
2023-01-09T07:32:30.618Z,6.54
2023-01-09T07:33:30.591Z,6.55
2023-01-09T07:34:30.646Z,6.58
2023-01-09T07:35:30.652Z,6.55
2023-01-09T07:36:30.597Z,6.53
2023-01-09T07:37:30.595Z,6.48
2023-01-09T07:38:30.605Z,6.43
2023-01-09T07:39:30.623Z,6.35
2023-01-09T07:40:30.624Z,6.29
2023-01-09T07:41:30.622Z,6.26
2023-01-09T07:42:30.604Z,6.23
2023-01-09T07:43:30.635Z,6.21
2023-01-09T07:44:30.650Z,6.15
2023-01-09T07:45:33.421Z,6.21
2023-01-09T07:46:30.693Z,6.26
2023-01-09T07:47:30.624Z,6.32
2023-01-09T07:48:30.699Z,6.40
2023-01-09T07:49:30.656Z,6.47
2023-01-09T07:50:30.623Z,6.55
2023-01-09T07:51:30.667Z,6.57
2023-01-09T07:52:30.618Z,6.52
2023-01-09T07:53:30.668Z,6.50
2023-01-09T07:54:30.622Z,6.45
2023-01-09T07:55:30.626Z,6.46
2023-01-09T07:56:30.705Z,6.49
2023-01-09T07:57:30.652Z,6.53
2023-01-09T07:58:30.633Z,6.54
2023-01-09T07:59:30.637Z,6.55
2023-01-09T08:00:32.946Z,6.56
2023-01-09T08:01:30.773Z,6.58
2023-01-09T08:03:30.680Z,6.61
2023-01-09T08:04:30.683Z,6.63
2023-01-09T08:05:30.651Z,6.67
2023-01-09T08:06:30.648Z,6.62
2023-01-09T08:07:30.659Z,6.67
2023-01-09T08:08:30.693Z,6.68
2023-01-09T08:09:30.740Z,6.64
2023-01-09T08:11:30.670Z,6.69
2023-01-09T08:12:30.705Z,6.66
2023-01-09T08:15:30.727Z,6.72
2023-01-09T08:16:30.682Z,6.78
2023-01-09T08:17:30.720Z,6.83
2023-01-09T08:18:30.702Z,6.88
2023-01-09T08:19:30.688Z,6.95
2023-01-09T08:20:30.697Z,7.01
2023-01-09T08:21:30.701Z,6.99
2023-01-09T08:22:30.694Z,7.05
2023-01-09T08:23:30.728Z,7.00
2023-01-09T08:24:30.740Z,6.96
2023-01-09T08:25:30.746Z,6.91
2023-01-09T08:26:30.743Z,6.92
2023-01-09T08:27:30.721Z,6.89
2023-01-09T08:28:30.700Z,6.91
2023-01-09T08:29:30.722Z,6.82
2023-01-09T08:30:30.740Z,6.83
2023-01-09T08:32:30.759Z,6.88
2023-01-09T08:33:30.805Z,6.95
2023-01-09T08:34:30.754Z,7.05
2023-01-09T08:35:30.727Z,7.15
2023-01-09T08:36:30.723Z,7.25
2023-01-09T08:37:30.767Z,7.31
2023-01-09T08:38:30.757Z,7.46
2023-01-09T08:39:30.747Z,7.53
2023-01-09T08:40:30.795Z,7.59
2023-01-09T08:41:30.753Z,7.66
2023-01-09T08:42:30.744Z,8.15
2023-01-09T08:43:30.776Z,8.64
2023-01-09T08:44:30.784Z,8.74
2023-01-09T08:45:30.742Z,8.72
2023-01-09T08:46:31.374Z,8.73
2023-01-09T08:47:30.809Z,8.68
2023-01-09T08:49:30.768Z,8.66
2023-01-09T08:50:30.763Z,8.64
2023-01-09T08:51:30.823Z,8.66
2023-01-09T08:52:30.827Z,8.91
2023-01-09T08:53:30.798Z,9.17
2023-01-09T08:54:31.360Z,9.18
2023-01-09T08:55:30.801Z,9.10
2023-01-09T08:56:30.773Z,9.03
2023-01-09T08:57:30.794Z,8.93
2023-01-09T08:58:30.814Z,8.88
2023-01-09T08:59:30.873Z,8.79
2023-01-09T09:00:30.786Z,8.72
2023-01-09T09:01:30.826Z,8.59
2023-01-09T09:02:30.846Z,8.49
2023-01-09T09:03:30.796Z,8.44
2023-01-09T09:04:30.825Z,8.28
2023-01-09T09:05:30.841Z,8.22
2023-01-09T09:06:30.811Z,8.16
2023-01-09T09:07:30.913Z,8.06
2023-01-09T09:08:30.854Z,8.03
2023-01-09T09:09:30.798Z,7.97
2023-01-09T09:10:30.857Z,7.92
2023-01-09T09:11:30.868Z,7.85
2023-01-09T09:12:30.885Z,7.81
2023-01-09T09:13:30.881Z,7.75
2023-01-09T09:14:30.880Z,7.72
2023-01-09T09:15:30.854Z,7.71
2023-01-09T09:16:30.916Z,7.70
2023-01-09T09:17:30.833Z,7.71
2023-01-09T09:18:30.844Z,7.72
2023-01-09T09:19:30.869Z,7.73
2023-01-09T09:20:30.875Z,7.71
2023-01-09T09:21:30.870Z,7.76
2023-01-09T09:22:30.877Z,7.80
2023-01-09T09:23:30.844Z,7.84
2023-01-09T09:24:30.855Z,7.87
2023-01-09T09:25:30.872Z,7.90
2023-01-09T09:26:30.891Z,7.95
2023-01-09T09:27:30.857Z,8.11
2023-01-09T09:28:30.935Z,8.22
2023-01-09T09:29:30.866Z,8.34
2023-01-09T09:30:30.893Z,8.56
2023-01-09T09:31:30.953Z,8.83
2023-01-09T09:32:30.858Z,8.98
2023-01-09T09:33:30.919Z,9.34
2023-01-09T09:34:30.904Z,9.70
2023-01-09T09:35:30.898Z,10.01
2023-01-09T09:36:30.936Z,10.27
2023-01-09T09:37:30.904Z,10.73
2023-01-09T09:38:30.876Z,11.62
2023-01-09T09:39:30.879Z,12.72
2023-01-09T09:40:30.935Z,13.87
2023-01-09T09:41:30.960Z,15.02
2023-01-09T09:42:30.932Z,16.11
2023-01-09T09:43:30.901Z,15.93
2023-01-09T09:44:30.896Z,15.95
2023-01-09T09:45:30.947Z,15.39
2023-01-09T09:46:30.985Z,14.82
2023-01-09T09:47:30.945Z,14.09
2023-01-09T09:48:30.948Z,13.47
2023-01-09T09:49:30.932Z,13.00
2023-01-09T09:50:30.922Z,13.19
2023-01-09T09:51:30.938Z,13.38
2023-01-09T09:52:30.941Z,13.90
2023-01-09T09:53:31.030Z,13.79
2023-01-09T09:54:30.946Z,14.02
2023-01-09T09:55:30.905Z,14.05
2023-01-09T09:56:30.957Z,14.56
2023-01-09T09:57:30.921Z,14.37
2023-01-09T09:58:30.980Z,14.74
2023-01-09T09:59:30.982Z,15.27
2023-01-09T10:00:30.979Z,15.18
2023-01-09T10:01:30.937Z,16.49
2023-01-09T10:02:31.044Z,16.87
2023-01-09T10:03:34.100Z,17.95
2023-01-09T10:04:30.986Z,18.47
2023-01-09T10:05:30.941Z,18.58
2023-01-09T10:06:30.997Z,19.29
2023-01-09T10:07:30.998Z,20.03
2023-01-09T10:08:31.004Z,20.97
2023-01-09T10:09:30.976Z,20.69
2023-01-09T10:10:30.998Z,20.18
2023-01-09T10:11:30.971Z,19.80
2023-01-09T10:12:31.005Z,20.90
2023-01-09T10:13:32.576Z,21.77
2023-01-09T10:14:30.985Z,22.38
2023-01-09T10:15:31.001Z,22.60
2023-01-09T10:16:30.969Z,22.72
2023-01-09T10:17:30.974Z,22.82
2023-01-09T10:18:30.989Z,22.34
2023-01-09T10:19:30.994Z,21.71
2023-01-09T10:20:31.030Z,20.93
2023-01-09T10:21:31.033Z,20.28
2023-01-09T10:22:31.028Z,19.65
2023-01-09T10:23:31.081Z,19.06
2023-01-09T10:24:31.040Z,18.53
2023-01-09T10:25:31.046Z,18.13
2023-01-09T10:26:31.003Z,17.80
2023-01-09T10:27:31.026Z,17.47
2023-01-09T10:28:31.068Z,17.21
2023-01-09T10:29:31.016Z,16.95
2023-01-09T10:30:31.028Z,16.51
2023-01-09T10:31:31.121Z,16.26
2023-01-09T10:32:31.017Z,16.04
2023-01-09T10:33:31.018Z,15.83
2023-01-09T10:34:31.046Z,15.64
2023-01-09T10:35:42.736Z,15.50
2023-01-09T10:36:31.107Z,15.35
2023-01-09T10:37:31.074Z,15.20
2023-01-09T10:38:31.034Z,15.07
2023-01-09T10:39:31.031Z,15.01
2023-01-09T10:40:31.091Z,14.88
2023-01-09T10:41:31.075Z,14.74
2023-01-09T10:42:31.058Z,14.57
2023-01-09T10:43:31.087Z,14.43
2023-01-09T10:44:31.081Z,14.34
2023-01-09T10:45:31.098Z,14.19
2023-01-09T10:46:31.129Z,14.09
2023-01-09T10:47:31.044Z,13.92
2023-01-09T10:48:31.081Z,13.83
2023-01-09T10:49:31.112Z,13.67
2023-01-09T10:50:31.094Z,13.44
2023-01-09T10:51:31.074Z,13.28
2023-01-09T10:53:31.072Z,13.15
2023-01-09T10:54:31.091Z,13.12
2023-01-09T10:55:31.088Z,12.95
2023-01-09T10:56:31.091Z,12.87
2023-01-09T10:57:31.122Z,12.73
2023-01-09T10:58:31.086Z,12.66
2023-01-09T10:59:31.171Z,12.57
2023-01-09T11:00:31.093Z,12.50
2023-01-09T11:02:31.193Z,12.56
2023-01-09T11:03:31.250Z,12.55
2023-01-09T11:04:31.136Z,12.39
2023-01-09T11:05:32.710Z,12.25
2023-01-09T11:06:31.098Z,12.23
2023-01-09T11:07:31.139Z,12.20
2023-01-09T11:08:31.152Z,12.10
2023-01-09T11:09:31.110Z,11.98
2023-01-09T11:10:31.180Z,11.81
2023-01-09T11:11:31.162Z,11.73
2023-01-09T11:12:31.164Z,11.64
2023-01-09T11:13:31.120Z,11.63
2023-01-09T11:14:31.150Z,11.69
2023-01-09T11:15:31.130Z,11.74
2023-01-09T11:16:31.215Z,11.77
2023-01-09T11:17:31.152Z,11.75
2023-01-09T11:18:31.210Z,11.69
2023-01-09T11:19:31.195Z,11.60
2023-01-09T11:20:31.177Z,11.58
2023-01-09T11:21:31.150Z,11.52
2023-01-09T11:22:31.138Z,11.48
2023-01-09T11:23:31.203Z,11.50
2023-01-09T11:24:31.187Z,11.41
2023-01-09T11:25:31.192Z,11.40
2023-01-09T11:26:31.231Z,11.45
2023-01-09T11:27:31.202Z,11.44
2023-01-09T11:28:31.159Z,11.42
2023-01-09T11:29:31.193Z,11.37
2023-01-09T11:30:31.158Z,11.30
2023-01-09T11:31:31.282Z,11.20
2023-01-09T11:32:31.171Z,11.21
2023-01-09T11:33:31.214Z,11.04
2023-01-09T11:34:31.192Z,10.93
2023-01-09T11:35:33.923Z,10.84
2023-01-09T11:36:31.236Z,10.76
2023-01-09T11:37:31.178Z,10.68
2023-01-09T11:38:31.182Z,10.58
2023-01-09T11:39:31.272Z,10.40
2023-01-09T11:40:31.219Z,10.33
2023-01-09T11:41:31.363Z,10.36
2023-01-09T11:42:31.243Z,10.18
2023-01-09T11:43:31.246Z,10.03
2023-01-09T11:44:31.257Z,9.92
2023-01-09T11:45:31.219Z,9.76
2023-01-09T11:46:31.228Z,9.68
2023-01-09T11:47:31.237Z,9.53
2023-01-09T11:48:31.205Z,9.35
2023-01-09T11:49:31.219Z,9.22
2023-01-09T11:50:31.228Z,9.17
2023-01-09T11:51:31.209Z,9.19
2023-01-09T11:52:31.250Z,9.12
2023-01-09T11:54:31.218Z,9.05
2023-01-09T11:55:41.838Z,9.04
2023-01-09T11:56:31.228Z,9.03
2023-01-09T11:57:31.253Z,9.05
2023-01-09T11:58:31.227Z,9.06
2023-01-09T11:59:31.259Z,9.07
2023-01-09T12:00:31.331Z,9.09
2023-01-09T12:01:31.262Z,9.03
2023-01-09T12:02:31.240Z,9.01
2023-01-09T12:03:31.302Z,9.03
2023-01-09T12:04:31.293Z,8.98
2023-01-09T12:05:31.325Z,8.95
2023-01-09T12:06:31.306Z,8.92
2023-01-09T12:07:31.285Z,8.79
2023-01-09T12:08:31.285Z,8.67
2023-01-09T12:09:31.261Z,8.60
2023-01-09T12:11:31.282Z,8.59
2023-01-09T12:12:31.295Z,8.57
2023-01-09T12:13:31.314Z,8.43
2023-01-09T12:14:31.310Z,8.33
2023-01-09T12:15:31.268Z,8.31
2023-01-09T12:16:31.383Z,8.35
2023-01-09T12:17:31.281Z,8.39
2023-01-09T12:18:32.528Z,8.47
2023-01-09T12:19:31.284Z,8.54
2023-01-09T12:20:31.341Z,8.57
2023-01-09T12:21:31.374Z,8.46
2023-01-09T12:22:31.295Z,8.43
2023-01-09T12:23:31.277Z,8.37
2023-01-09T12:24:31.285Z,8.36
2023-01-09T12:25:31.298Z,8.30
2023-01-09T12:27:31.304Z,8.27
2023-01-09T12:28:31.346Z,8.24
2023-01-09T12:29:31.334Z,8.21
2023-01-09T12:30:31.349Z,8.23
2023-01-09T12:31:31.424Z,8.20
2023-01-09T12:32:31.361Z,8.26
2023-01-09T12:33:31.320Z,8.24
2023-01-09T12:34:31.360Z,8.27
2023-01-09T12:35:31.371Z,8.19
2023-01-09T12:36:31.362Z,8.08
2023-01-09T12:37:31.347Z,8.11
2023-01-09T12:38:31.365Z,8.05
2023-01-09T12:39:31.392Z,7.97
2023-01-09T12:40:31.348Z,7.99
2023-01-09T12:41:31.359Z,8.09
2023-01-09T12:42:31.400Z,8.12
2023-01-09T12:43:31.370Z,8.17
2023-01-09T12:44:35.972Z,8.26
2023-01-09T12:46:31.404Z,8.29
2023-01-09T12:47:31.377Z,8.31
2023-01-09T12:48:31.347Z,8.32
2023-01-09T12:49:31.357Z,8.30
2023-01-09T12:50:31.365Z,8.27
2023-01-09T12:51:31.407Z,8.23
2023-01-09T12:52:31.395Z,8.26
2023-01-09T12:53:31.367Z,8.08
2023-01-09T12:54:31.367Z,8.10
2023-01-09T12:55:31.414Z,8.12
2023-01-09T12:56:31.379Z,8.10
2023-01-09T12:57:31.370Z,8.17
2023-01-09T12:58:31.421Z,8.20
2023-01-09T12:59:31.419Z,8.17
2023-01-09T13:00:31.452Z,8.18
2023-01-09T13:01:31.454Z,8.10
2023-01-09T13:02:31.440Z,8.14
2023-01-09T13:03:31.427Z,8.20
2023-01-09T13:04:31.386Z,8.19
2023-01-09T13:05:31.432Z,8.25
2023-01-09T13:06:31.465Z,8.24
2023-01-09T13:07:31.413Z,8.22
2023-01-09T13:08:31.472Z,8.02
2023-01-09T13:09:31.443Z,7.89
2023-01-09T13:10:31.446Z,7.76
2023-01-09T13:11:31.446Z,7.66
2023-01-09T13:12:31.438Z,7.57
2023-01-09T13:13:31.424Z,7.41
2023-01-09T13:14:31.400Z,7.42
2023-01-09T13:15:31.439Z,7.41
2023-01-09T13:16:31.548Z,7.48
2023-01-09T13:17:31.455Z,7.52
2023-01-09T13:18:31.418Z,7.45
2023-01-09T13:19:31.453Z,7.44
2023-01-09T13:20:31.476Z,7.43
2023-01-09T13:21:31.499Z,7.35
2023-01-09T13:22:31.485Z,7.38
2023-01-09T13:23:31.465Z,7.40
2023-01-09T13:24:31.543Z,7.43
2023-01-09T13:25:31.491Z,7.28
2023-01-09T13:26:31.436Z,7.24
2023-01-09T13:27:31.477Z,7.28
2023-01-09T13:28:31.450Z,7.29
2023-01-09T13:29:31.531Z,7.35
2023-01-09T13:30:31.442Z,7.37
2023-01-09T13:31:31.529Z,7.41
2023-01-09T13:32:31.454Z,7.40
2023-01-09T13:33:31.466Z,7.36
2023-01-09T13:34:31.524Z,7.30
2023-01-09T13:35:31.498Z,7.23
2023-01-09T13:36:31.602Z,7.22
2023-01-09T13:37:31.523Z,7.26
2023-01-09T13:38:31.504Z,7.32
2023-01-09T13:39:31.520Z,7.26
2023-01-09T13:40:31.532Z,7.24
2023-01-09T13:41:31.528Z,7.27
2023-01-09T13:42:31.547Z,7.31
2023-01-09T13:43:31.528Z,7.28
2023-01-09T13:44:33.725Z,7.32
2023-01-09T13:45:31.552Z,7.30
2023-01-09T13:46:31.538Z,7.26
2023-01-09T13:47:31.501Z,7.28
2023-01-09T13:48:31.544Z,7.32
2023-01-09T13:49:31.494Z,7.36
2023-01-09T13:51:31.510Z,7.33
2023-01-09T13:52:31.521Z,7.39
2023-01-09T13:53:32.456Z,7.41
2023-01-09T13:54:31.499Z,7.48
2023-01-09T13:55:31.561Z,7.50
2023-01-09T13:56:31.563Z,7.53
2023-01-09T13:57:31.563Z,7.55
2023-01-09T13:58:31.556Z,7.46